Parma, Idaho
Current Conditions -  °F | °C
As of 2:53 AM on Friday 24 Oct 2014 (Local Time) from KONO Reporting Station
Overcast Overcast  
Wind Chill: 52°   Ceiling: 6500
Heat Index: 52°   Visibility: 8mi
Dew Point: 51°   Wind: 0mph
Humidity: 97%   Direction: NA
Pressure: 30.09"   Gusts: NA
Location:  43.79°N, 116.94°W
Report Text: KONO 240853Z AUTO 00000KT 8SM OVC065 11/11 A3009 RMK AO2 RAB25E50 SLP191 P0000 60000 T01110106 51003
Loading
Personal Weather Stations






























Interactive Weather Map
Tropical Storm Tracking
New forecast layout! Learn more

10-Day Weather Forecast

Advertisements
Track Severe Weather on mobile